Ana Sayfa
METAR-TAF:

METAR-TAF

Havaalanları :

Louisa County Airport (Freeman Field)

Louisa, Virginia, Amerika Birleşik Devletleri

Enlem: 38-00-35N, Boylam: 077-58-13W, yükseklik: 150 m

Güncel hava durumu gözlemi

Rapor saat 08:55 UTC de 27 dakika önce yapıldı.
Rüzgar güneydan 5 kt
Sıcaklık 7°C
Nem 100%
Basınç 1013 hPa
Görüş mesafesi: 4.8 km
400 ft yükseklikte çok bulutlu
hafif yağmur, Pus

METAR: KLKU 250855Z AUTO 17005KT 3SM -RA BR OVC004 07/07 A2990 RMK AO2 T00710069

Saat: 04:22 (09:22 UTC)


TAF: eksik

4.000'den fazla havaalanı için hava durumu gözlemleri ve tahminleri (METAR ve TAF raporları).

Kullanılabilir istasyonlar harita üzerinde sarı ve kırmızı noktalarla gösterilir.

İstasyonun adını görmek için fareyi noktanın üzerinde gezdirin.

Sonrasında hava gözlem ve tahminlerini görmek için tıklayın.

Haritayı değiştirmek için: yaklaştırmak için siyah artı işaretli yeşil düğmeye ve uzaklaştırmak için de eksi işaretli düğmeye hızla tıklayın; bitişik haritalar için yeşil okları kullanın.


METAR-TAF: